sensor_id;sensor_type;location;lat;lon;timestamp;temperature;humidity
68912;SHT31;55953;51.650;-0.522;2023-02-21T00:01:57;9.88;81.74
68912;SHT31;55953;51.650;-0.522;2023-02-21T00:04:44;9.84;81.81
68912;SHT31;55953;51.650;-0.522;2023-02-21T00:07:31;9.81;81.85
68912;SHT31;55953;51.650;-0.522;2023-02-21T00:10:18;9.81;81.88
68912;SHT31;55953;51.650;-0.522;2023-02-21T00:13:05;9.77;81.93
68912;SHT31;55953;51.650;-0.522;2023-02-21T00:15:51;9.77;81.92
68912;SHT31;55953;51.650;-0.522;2023-02-21T00:18:38;9.76;81.94
68912;SHT31;55953;51.650;-0.522;2023-02-21T00:21:26;9.70;82.05
68912;SHT31;55953;51.650;-0.522;2023-02-21T00:24:16;9.68;82.11
68912;SHT31;55953;51.650;-0.522;2023-02-21T00:27:04;9.68;82.10
68912;SHT31;55953;51.650;-0.522;2023-02-21T00:29:51;9.66;82.14
68912;SHT31;55953;51.650;-0.522;2023-02-21T00:32:38;9.65;82.17
68912;SHT31;55953;51.650;-0.522;2023-02-21T00:35:25;9.62;82.30
68912;SHT31;55953;51.650;-0.522;2023-02-21T00:38:11;9.59;82.29
68912;SHT31;55953;51.650;-0.522;2023-02-21T00:40:57;9.54;82.46
68912;SHT31;55953;51.650;-0.522;2023-02-21T00:43:44;9.52;82.43
68912;SHT31;55953;51.650;-0.522;2023-02-21T00:46:31;9.48;82.51
68912;SHT31;55953;51.650;-0.522;2023-02-21T00:49:17;9.42;82.70
68912;SHT31;55953;51.650;-0.522;2023-02-21T00:52:03;9.44;82.65
68912;SHT31;55953;51.650;-0.522;2023-02-21T00:54:50;9.47;82.59
68912;SHT31;55953;51.650;-0.522;2023-02-21T00:57:37;9.47;82.61
68912;SHT31;55953;51.650;-0.522;2023-02-21T01:00:23;9.47;82.69
68912;SHT31;55953;51.650;-0.522;2023-02-21T01:03:11;9.50;82.60
68912;SHT31;55953;51.650;-0.522;2023-02-21T01:05:57;9.48;82.68
68912;SHT31;55953;51.650;-0.522;2023-02-21T01:08:44;9.47;82.70
68912;SHT31;55953;51.650;-0.522;2023-02-21T01:11:32;9.44;82.67
68912;SHT31;55953;51.650;-0.522;2023-02-21T01:14:18;9.42;82.75
68912;SHT31;55953;51.650;-0.522;2023-02-21T01:17:05;9.39;82.73
68912;SHT31;55953;51.650;-0.522;2023-02-21T01:19:51;9.39;82.72
68912;SHT31;55953;51.650;-0.522;2023-02-21T01:22:38;9.40;82.67
68912;SHT31;55953;51.650;-0.522;2023-02-21T01:25:24;9.38;82.71
68912;SHT31;55953;51.650;-0.522;2023-02-21T01:28:10;9.38;82.78
68912;SHT31;55953;51.650;-0.522;2023-02-21T01:30:57;9.38;82.74
68912;SHT31;55953;51.650;-0.522;2023-02-21T01:33:44;9.35;82.81
68912;SHT31;55953;51.650;-0.522;2023-02-21T01:36:31;9.35;82.78
68912;SHT31;55953;51.650;-0.522;2023-02-21T01:39:17;9.38;82.72
68912;SHT31;55953;51.650;-0.522;2023-02-21T01:42:04;9.40;82.65
68912;SHT31;55953;51.650;-0.522;2023-02-21T01:45:05;9.41;82.67
68912;SHT31;55953;51.650;-0.522;2023-02-21T01:48:06;9.41;82.67
68912;SHT31;55953;51.650;-0.522;2023-02-21T01:50:57;9.43;82.67
68912;SHT31;55953;51.650;-0.522;2023-02-21T01:53:46;9.42;82.66
68912;SHT31;55953;51.650;-0.522;2023-02-21T01:56:32;9.39;82.81
68912;SHT31;55953;51.650;-0.522;2023-02-21T01:59:21;9.32;82.93
68912;SHT31;55953;51.650;-0.522;2023-02-21T02:05:14;9.14;83.36
68912;SHT31;55953;51.650;-0.522;2023-02-21T02:08:02;9.08;83.61
68912;SHT31;55953;51.650;-0.522;2023-02-21T02:10:52;9.03;83.87
68912;SHT31;55953;51.650;-0.522;2023-02-21T02:14:16;8.98;84.03
68912;SHT31;55953;51.650;-0.522;2023-02-21T02:23:26;8.97;84.08
68912;SHT31;55953;51.650;-0.522;2023-02-21T02:38:26;8.92;84.37
68912;SHT31;55953;51.650;-0.522;2023-02-21T02:41:05;8.90;84.49
68912;SHT31;55953;51.650;-0.522;2023-02-21T02:44:13;8.90;84.39
68912;SHT31;55953;51.650;-0.522;2023-02-21T02:46:48;8.90;84.44
68912;SHT31;55953;51.650;-0.522;2023-02-21T02:49:22;8.86;84.56
68912;SHT31;55953;51.650;-0.522;2023-02-21T02:51:56;8.83;84.74
68912;SHT31;55953;51.650;-0.522;2023-02-21T02:54:34;8.80;84.77
68912;SHT31;55953;51.650;-0.522;2023-02-21T02:57:04;8.78;85.01
68912;SHT31;55953;51.650;-0.522;2023-02-21T02:59:39;8.78;84.93
68912;SHT31;55953;51.650;-0.522;2023-02-21T03:05:59;8.81;84.82
68912;SHT31;55953;51.650;-0.522;2023-02-21T03:08:54;8.81;84.80
68912;SHT31;55953;51.650;-0.522;2023-02-21T03:11:35;8.81;84.90
68912;SHT31;55953;51.650;-0.522;2023-02-21T03:14:18;8.81;84.99
68912;SHT31;55953;51.650;-0.522;2023-02-21T03:16:57;8.80;84.96
68912;SHT31;55953;51.650;-0.522;2023-02-21T03:19:33;8.80;84.96
68912;SHT31;55953;51.650;-0.522;2023-02-21T03:22:09;8.81;84.88
68912;SHT31;55953;51.650;-0.522;2023-02-21T03:24:43;8.77;84.96
68912;SHT31;55953;51.650;-0.522;2023-02-21T03:27:14;8.71;85.04
68912;SHT31;55953;51.650;-0.522;2023-02-21T03:30:03;8.67;85.18
68912;SHT31;55953;51.650;-0.522;2023-02-21T03:32:39;8.68;85.15
68912;SHT31;55953;51.650;-0.522;2023-02-21T03:35:14;8.67;85.15
68912;SHT31;55953;51.650;-0.522;2023-02-21T03:37:43;8.69;85.16
68912;SHT31;55953;51.650;-0.522;2023-02-21T03:40:17;8.72;85.01
68912;SHT31;55953;51.650;-0.522;2023-02-21T03:42:51;8.76;84.84
68912;SHT31;55953;51.650;-0.522;2023-02-21T03:45:21;8.78;84.81
68912;SHT31;55953;51.650;-0.522;2023-02-21T03:48:02;8.79;84.82
68912;SHT31;55953;51.650;-0.522;2023-02-21T03:50:32;8.79;84.85
68912;SHT31;55953;51.650;-0.522;2023-02-21T03:53:00;8.74;84.79
68912;SHT31;55953;51.650;-0.522;2023-02-21T03:55:28;8.74;84.79
68912;SHT31;55953;51.650;-0.522;2023-02-21T03:57:56;8.72;84.77
68912;SHT31;55953;51.650;-0.522;2023-02-21T04:00:24;8.68;84.72
68912;SHT31;55953;51.650;-0.522;2023-02-21T04:02:53;8.63;84.82
68912;SHT31;55953;51.650;-0.522;2023-02-21T04:05:43;8.62;84.88
68912;SHT31;55953;51.650;-0.522;2023-02-21T04:08:11;8.63;84.87
68912;SHT31;55953;51.650;-0.522;2023-02-21T04:10:39;8.59;84.99
68912;SHT31;55953;51.650;-0.522;2023-02-21T04:13:19;8.56;84.94
68912;SHT31;55953;51.650;-0.522;2023-02-21T04:15:47;8.55;85.04
68912;SHT31;55953;51.650;-0.522;2023-02-21T04:18:16;8.54;85.06
68912;SHT31;55953;51.650;-0.522;2023-02-21T04:20:46;8.55;85.02
68912;SHT31;55953;51.650;-0.522;2023-02-21T04:23:18;8.55;85.02
68912;SHT31;55953;51.650;-0.522;2023-02-21T04:25:47;8.56;85.02
68912;SHT31;55953;51.650;-0.522;2023-02-21T04:28:21;8.55;84.99
68912;SHT31;55953;51.650;-0.522;2023-02-21T04:30:49;8.52;84.91
68912;SHT31;55953;51.650;-0.522;2023-02-21T04:33:18;8.48;84.98
68912;SHT31;55953;51.650;-0.522;2023-02-21T04:35:46;8.48;84.97
68912;SHT31;55953;51.650;-0.522;2023-02-21T04:38:23;8.48;84.99
68912;SHT31;55953;51.650;-0.522;2023-02-21T04:40:51;8.48;84.99
68912;SHT31;55953;51.650;-0.522;2023-02-21T04:43:19;8.47;84.95
68912;SHT31;55953;51.650;-0.522;2023-02-21T04:45:48;8.46;84.87
68912;SHT31;55953;51.650;-0.522;2023-02-21T04:48:16;8.46;84.82
68912;SHT31;55953;51.650;-0.522;2023-02-21T04:50:44;8.41;84.86
68912;SHT31;55953;51.650;-0.522;2023-02-21T04:53:12;8.40;84.93
68912;SHT31;55953;51.650;-0.522;2023-02-21T04:55:40;8.38;84.90
68912;SHT31;55953;51.650;-0.522;2023-02-21T04:58:07;8.32;84.85
68912;SHT31;55953;51.650;-0.522;2023-02-21T05:00:35;8.24;84.91
68912;SHT31;55953;51.650;-0.522;2023-02-21T05:03:03;8.17;84.98
68912;SHT31;55953;51.650;-0.522;2023-02-21T05:05:31;8.14;85.04
68912;SHT31;55953;51.650;-0.522;2023-02-21T05:07:59;8.12;85.33
68912;SHT31;55953;51.650;-0.522;2023-02-21T05:10:27;8.06;85.45
68912;SHT31;55953;51.650;-0.522;2023-02-21T05:13:12;8.05;85.52
68912;SHT31;55953;51.650;-0.522;2023-02-21T05:15:41;8.09;85.40
68912;SHT31;55953;51.650;-0.522;2023-02-21T05:18:09;8.14;85.25
68912;SHT31;55953;51.650;-0.522;2023-02-21T05:20:37;8.12;85.25
68912;SHT31;55953;51.650;-0.522;2023-02-21T05:23:04;8.10;85.32
68912;SHT31;55953;51.650;-0.522;2023-02-21T05:25:40;8.10;85.27
68912;SHT31;55953;51.650;-0.522;2023-02-21T05:28:08;8.11;85.25
68912;SHT31;55953;51.650;-0.522;2023-02-21T05:30:36;8.10;85.25
68912;SHT31;55953;51.650;-0.522;2023-02-21T05:33:04;8.08;85.36
68912;SHT31;55953;51.650;-0.522;2023-02-21T05:35:32;8.06;85.36
68912;SHT31;55953;51.650;-0.522;2023-02-21T05:38:00;8.02;85.38
68912;SHT31;55953;51.650;-0.522;2023-02-21T05:40:27;7.99;85.48
68912;SHT31;55953;51.650;-0.522;2023-02-21T05:42:55;8.01;85.53
68912;SHT31;55953;51.650;-0.522;2023-02-21T05:45:23;8.03;85.62
68912;SHT31;55953;51.650;-0.522;2023-02-21T05:47:51;8.04;85.61
68912;SHT31;55953;51.650;-0.522;2023-02-21T05:50:22;8.06;85.52
68912;SHT31;55953;51.650;-0.522;2023-02-21T05:52:50;8.06;85.52
68912;SHT31;55953;51.650;-0.522;2023-02-21T05:55:18;8.07;85.43
68912;SHT31;55953;51.650;-0.522;2023-02-21T05:57:46;8.01;85.29
68912;SHT31;55953;51.650;-0.522;2023-02-21T06:00:17;7.95;85.24
68912;SHT31;55953;51.650;-0.522;2023-02-21T06:02:51;7.95;85.35
68912;SHT31;55953;51.650;-0.522;2023-02-21T06:05:19;7.94;85.37
68912;SHT31;55953;51.650;-0.522;2023-02-21T06:07:49;7.97;85.39
68912;SHT31;55953;51.650;-0.522;2023-02-21T06:10:18;7.97;85.23
68912;SHT31;55953;51.650;-0.522;2023-02-21T06:12:46;7.92;85.25
68912;SHT31;55953;51.650;-0.522;2023-02-21T06:15:14;7.95;85.34
68912;SHT31;55953;51.650;-0.522;2023-02-21T06:17:43;7.97;85.21
68912;SHT31;55953;51.650;-0.522;2023-02-21T06:20:11;7.93;85.03
68912;SHT31;55953;51.650;-0.522;2023-02-21T06:22:43;7.84;85.04
68912;SHT31;55953;51.650;-0.522;2023-02-21T06:25:10;7.81;85.13
68912;SHT31;55953;51.650;-0.522;2023-02-21T06:27:38;7.79;85.22
68912;SHT31;55953;51.650;-0.522;2023-02-21T06:30:07;7.78;85.22
68912;SHT31;55953;51.650;-0.522;2023-02-21T06:32:35;7.80;85.21
68912;SHT31;55953;51.650;-0.522;2023-02-21T06:35:03;7.83;85.13
68912;SHT31;55953;51.650;-0.522;2023-02-21T06:37:31;7.83;85.04
68912;SHT31;55953;51.650;-0.522;2023-02-21T06:39:59;7.82;85.01
68912;SHT31;55953;51.650;-0.522;2023-02-21T06:42:27;7.86;85.13
68912;SHT31;55953;51.650;-0.522;2023-02-21T06:44:56;7.87;84.95
68912;SHT31;55953;51.650;-0.522;2023-02-21T06:47:24;7.82;84.95
68912;SHT31;55953;51.650;-0.522;2023-02-21T06:49:52;7.80;84.98
68912;SHT31;55953;51.650;-0.522;2023-02-21T06:52:19;7.86;84.97
68912;SHT31;55953;51.650;-0.522;2023-02-21T06:54:50;7.90;84.92
68912;SHT31;55953;51.650;-0.522;2023-02-21T06:57:18;7.89;84.75
68912;SHT31;55953;51.650;-0.522;2023-02-21T06:59:46;7.85;84.78
68912;SHT31;55953;51.650;-0.522;2023-02-21T07:02:14;7.83;84.87
68912;SHT31;55953;51.650;-0.522;2023-02-21T07:04:46;7.83;84.93
68912;SHT31;55953;51.650;-0.522;2023-02-21T07:07:15;7.89;84.75
68912;SHT31;55953;51.650;-0.522;2023-02-21T07:09:43;7.85;84.63
68912;SHT31;55953;51.650;-0.522;2023-02-21T07:12:11;7.86;84.70
68912;SHT31;55953;51.650;-0.522;2023-02-21T07:14:38;7.90;84.75
68912;SHT31;55953;51.650;-0.522;2023-02-21T07:17:06;7.97;84.77
68912;SHT31;55953;51.650;-0.522;2023-02-21T07:19:34;8.01;84.51
68912;SHT31;55953;51.650;-0.522;2023-02-21T07:22:02;7.97;84.42
68912;SHT31;55953;51.650;-0.522;2023-02-21T07:24:30;7.95;84.45
68912;SHT31;55953;51.650;-0.522;2023-02-21T07:26:58;7.95;84.54
68912;SHT31;55953;51.650;-0.522;2023-02-21T07:29:26;8.00;84.59
68912;SHT31;55953;51.650;-0.522;2023-02-21T07:31:54;8.00;84.55
68912;SHT31;55953;51.650;-0.522;2023-02-21T07:34:23;8.00;84.31
68912;SHT31;55953;51.650;-0.522;2023-02-21T07:36:51;7.99;84.10
68912;SHT31;55953;51.650;-0.522;2023-02-21T07:39:18;7.95;84.03
68912;SHT31;55953;51.650;-0.522;2023-02-21T07:41:46;7.97;84.04
68912;SHT31;55953;51.650;-0.522;2023-02-21T07:44:21;7.99;83.98
68912;SHT31;55953;51.650;-0.522;2023-02-21T07:46:49;8.00;83.94
68912;SHT31;55953;51.650;-0.522;2023-02-21T07:49:17;7.99;83.86
68912;SHT31;55953;51.650;-0.522;2023-02-21T07:51:45;8.01;83.87
68912;SHT31;55953;51.650;-0.522;2023-02-21T07:54:12;8.05;83.95
68912;SHT31;55953;51.650;-0.522;2023-02-21T07:56:43;8.09;83.84
68912;SHT31;55953;51.650;-0.522;2023-02-21T07:59:13;8.11;83.70
68912;SHT31;55953;51.650;-0.522;2023-02-21T08:01:42;8.14;83.78
68912;SHT31;55953;51.650;-0.522;2023-02-21T08:04:10;8.19;83.88
68912;SHT31;55953;51.650;-0.522;2023-02-21T08:06:38;8.23;84.10
68912;SHT31;55953;51.650;-0.522;2023-02-21T08:09:06;8.24;84.07
68912;SHT31;55953;51.650;-0.522;2023-02-21T08:11:33;8.23;84.22
68912;SHT31;55953;51.650;-0.522;2023-02-21T08:14:03;8.29;84.18
68912;SHT31;55953;51.650;-0.522;2023-02-21T08:16:31;8.33;83.98
68912;SHT31;55953;51.650;-0.522;2023-02-21T08:19:01;8.38;83.91
68912;SHT31;55953;51.650;-0.522;2023-02-21T08:21:31;8.38;83.68
68912;SHT31;55953;51.650;-0.522;2023-02-21T08:23:59;8.35;83.77
68912;SHT31;55953;51.650;-0.522;2023-02-21T08:26:27;8.34;83.68
68912;SHT31;55953;51.650;-0.522;2023-02-21T08:28:55;8.34;83.69
68912;SHT31;55953;51.650;-0.522;2023-02-21T08:31:23;8.38;83.77
68912;SHT31;55953;51.650;-0.522;2023-02-21T08:33:53;8.41;83.55
68912;SHT31;55953;51.650;-0.522;2023-02-21T08:36:21;8.40;83.66
68912;SHT31;55953;51.650;-0.522;2023-02-21T08:38:51;8.48;83.84
68912;SHT31;55953;51.650;-0.522;2023-02-21T08:41:19;8.55;83.79
68912;SHT31;55953;51.650;-0.522;2023-02-21T08:43:47;8.63;83.80
68912;SHT31;55953;51.650;-0.522;2023-02-21T08:46:15;8.67;83.58
68912;SHT31;55953;51.650;-0.522;2023-02-21T08:48:43;8.65;83.44
68912;SHT31;55953;51.650;-0.522;2023-02-21T08:51:11;8.65;83.23
68912;SHT31;55953;51.650;-0.522;2023-02-21T08:53:40;8.68;83.45
68912;SHT31;55953;51.650;-0.522;2023-02-21T08:56:07;8.74;83.37
68912;SHT31;55953;51.650;-0.522;2023-02-21T08:58:35;8.77;83.14
68912;SHT31;55953;51.650;-0.522;2023-02-21T09:01:04;8.78;83.41
68912;SHT31;55953;51.650;-0.522;2023-02-21T09:03:33;8.84;83.50
68912;SHT31;55953;51.650;-0.522;2023-02-21T09:06:01;8.96;83.47
68912;SHT31;55953;51.650;-0.522;2023-02-21T09:08:30;9.05;82.98
68912;SHT31;55953;51.650;-0.522;2023-02-21T09:10:57;9.10;82.80
68912;SHT31;55953;51.650;-0.522;2023-02-21T09:13:29;9.05;82.78
68912;SHT31;55953;51.650;-0.522;2023-02-21T09:15:59;9.06;82.85
68912;SHT31;55953;51.650;-0.522;2023-02-21T09:18:30;9.04;82.83
68912;SHT31;55953;51.650;-0.522;2023-02-21T09:20:59;9.07;82.94
68912;SHT31;55953;51.650;-0.522;2023-02-21T09:23:27;9.06;82.91
68912;SHT31;55953;51.650;-0.522;2023-02-21T09:25:58;9.05;83.10
68912;SHT31;55953;51.650;-0.522;2023-02-21T09:28:26;9.08;83.02
68912;SHT31;55953;51.650;-0.522;2023-02-21T09:30:55;9.09;82.90
68912;SHT31;55953;51.650;-0.522;2023-02-21T09:33:23;9.08;82.97
68912;SHT31;55953;51.650;-0.522;2023-02-21T09:35:51;9.11;83.16
68912;SHT31;55953;51.650;-0.522;2023-02-21T09:38:20;9.16;83.02
68912;SHT31;55953;51.650;-0.522;2023-02-21T09:40:48;9.15;82.94
68912;SHT31;55953;51.650;-0.522;2023-02-21T09:46:17;9.17;83.37
68912;SHT31;55953;51.650;-0.522;2023-02-21T09:48:54;9.25;83.27
68912;SHT31;55953;51.650;-0.522;2023-02-21T09:51:23;9.35;83.15
68912;SHT31;55953;51.650;-0.522;2023-02-21T09:53:53;9.41;82.93
68912;SHT31;55953;51.650;-0.522;2023-02-21T09:58:55;9.51;82.79
68912;SHT31;55953;51.650;-0.522;2023-02-21T10:07:19;9.59;82.46
68912;SHT31;55953;51.650;-0.522;2023-02-21T10:10:45;9.60;82.79
68912;SHT31;55953;51.650;-0.522;2023-02-21T10:13:37;9.59;82.74
68912;SHT31;55953;51.650;-0.522;2023-02-21T10:19:14;9.74;82.76
68912;SHT31;55953;51.650;-0.522;2023-02-21T10:22:09;9.73;82.49
68912;SHT31;55953;51.650;-0.522;2023-02-21T10:24:46;9.74;82.63
68912;SHT31;55953;51.650;-0.522;2023-02-21T10:27:17;9.76;82.64
68912;SHT31;55953;51.650;-0.522;2023-02-21T10:29:59;9.83;82.92
68912;SHT31;55953;51.650;-0.522;2023-02-21T10:32:36;9.92;82.70
68912;SHT31;55953;51.650;-0.522;2023-02-21T10:35:05;9.99;82.65
68912;SHT31;55953;51.650;-0.522;2023-02-21T10:43:00;10.20;81.66
68912;SHT31;55953;51.650;-0.522;2023-02-21T10:45:49;10.28;81.66
68912;SHT31;55953;51.650;-0.522;2023-02-21T10:48:23;10.28;81.70
68912;SHT31;55953;51.650;-0.522;2023-02-21T10:53:39;10.20;81.74
68912;SHT31;55953;51.650;-0.522;2023-02-21T10:58:48;10.13;81.69
68912;SHT31;55953;51.650;-0.522;2023-02-21T11:02:08;10.13;81.92
68912;SHT31;55953;51.650;-0.522;2023-02-21T11:19:50;10.59;80.21
68912;SHT31;55953;51.650;-0.522;2023-02-21T11:22:45;10.59;80.42
68912;SHT31;55953;51.650;-0.522;2023-02-21T11:30:39;10.69;80.34
68912;SHT31;55953;51.650;-0.522;2023-02-21T11:33:27;10.69;80.22
68912;SHT31;55953;51.650;-0.522;2023-02-21T11:36:13;10.76;80.25
68912;SHT31;55953;51.650;-0.522;2023-02-21T11:39:02;10.81;79.96
68912;SHT31;55953;51.650;-0.522;2023-02-21T11:41:43;10.76;79.93
68912;SHT31;55953;51.650;-0.522;2023-02-21T11:44:28;10.71;80.06
68912;SHT31;55953;51.650;-0.522;2023-02-21T11:47:12;10.70;80.24
68912;SHT31;55953;51.650;-0.522;2023-02-21T11:50:33;10.72;79.98
68912;SHT31;55953;51.650;-0.522;2023-02-21T11:52:59;10.66;80.06
68912;SHT31;55953;51.650;-0.522;2023-02-21T11:55:39;10.73;80.11
68912;SHT31;55953;51.650;-0.522;2023-02-21T12:01:07;10.85;80.03
68912;SHT31;55953;51.650;-0.522;2023-02-21T12:03:45;10.92;80.12
68912;SHT31;55953;51.650;-0.522;2023-02-21T12:12:32;11.14;79.59
68912;SHT31;55953;51.650;-0.522;2023-02-21T12:15:20;11.25;79.40
68912;SHT31;55953;51.650;-0.522;2023-02-21T12:27:20;11.63;78.24
68912;SHT31;55953;51.650;-0.522;2023-02-21T12:30:13;11.71;77.88
68912;SHT31;55953;51.650;-0.522;2023-02-21T12:36:18;11.88;77.31
68912;SHT31;55953;51.650;-0.522;2023-02-21T12:50:19;12.13;75.61
68912;SHT31;55953;51.650;-0.522;2023-02-21T12:53:02;12.11;76.37
68912;SHT31;55953;51.650;-0.522;2023-02-21T12:55:40;12.16;76.04
68912;SHT31;55953;51.650;-0.522;2023-02-21T13:00:59;12.21;75.77
68912;SHT31;55953;51.650;-0.522;2023-02-21T13:04:13;12.19;75.74
68912;SHT31;55953;51.650;-0.522;2023-02-21T13:06:33;12.20;75.99
68912;SHT31;55953;51.650;-0.522;2023-02-21T13:09:10;12.23;76.12
68912;SHT31;55953;51.650;-0.522;2023-02-21T13:14:38;12.24;76.16
68912;SHT31;55953;51.650;-0.522;2023-02-21T13:17:13;12.20;75.94
68912;SHT31;55953;51.650;-0.522;2023-02-21T13:19:46;12.16;76.08
68912;SHT31;55953;51.650;-0.522;2023-02-21T13:28:57;12.16;75.90
68912;SHT31;55953;51.650;-0.522;2023-02-21T13:31:27;12.14;76.03
68912;SHT31;55953;51.650;-0.522;2023-02-21T13:34:06;12.17;76.28
68912;SHT31;55953;51.650;-0.522;2023-02-21T13:41:50;12.28;76.06
68912;SHT31;55953;51.650;-0.522;2023-02-21T13:44:28;12.26;76.04
68912;SHT31;55953;51.650;-0.522;2023-02-21T13:49:44;12.22;76.21
68912;SHT31;55953;51.650;-0.522;2023-02-21T14:16:33;12.31;75.85
68912;SHT31;55953;51.650;-0.522;2023-02-21T14:19:18;12.27;75.89
68912;SHT31;55953;51.650;-0.522;2023-02-21T14:21:58;12.24;75.84
68912;SHT31;55953;51.650;-0.522;2023-02-21T14:24:31;12.21;76.02
68912;SHT31;55953;51.650;-0.522;2023-02-21T14:32:34;12.07;75.72
68912;SHT31;55953;51.650;-0.522;2023-02-21T14:37:58;12.01;76.13
68912;SHT31;55953;51.650;-0.522;2023-02-21T14:43:16;12.00;75.99
68912;SHT31;55953;51.650;-0.522;2023-02-21T14:55:18;11.86;76.65
68912;SHT31;55953;51.650;-0.522;2023-02-21T15:01:07;11.79;77.03
68912;SHT31;55953;51.650;-0.522;2023-02-21T15:04:04;11.77;77.08
68912;SHT31;55953;51.650;-0.522;2023-02-21T15:06:52;11.75;77.18
68912;SHT31;55953;51.650;-0.522;2023-02-21T15:09:34;11.67;77.16
68912;SHT31;55953;51.650;-0.522;2023-02-21T15:12:04;11.65;77.35
68912;SHT31;55953;51.650;-0.522;2023-02-21T15:14:46;11.61;77.40
68912;SHT31;55953;51.650;-0.522;2023-02-21T15:17:19;11.55;77.22
68912;SHT31;55953;51.650;-0.522;2023-02-21T15:20:00;11.43;77.32
68912;SHT31;55953;51.650;-0.522;2023-02-21T15:22:40;11.35;77.66
68912;SHT31;55953;51.650;-0.522;2023-02-21T15:27:36;11.30;77.91
68912;SHT31;55953;51.650;-0.522;2023-02-21T15:30:21;11.28;78.06
68912;SHT31;55953;51.650;-0.522;2023-02-21T15:35:50;11.25;78.13
68912;SHT31;55953;51.650;-0.522;2023-02-21T15:38:38;11.28;78.08
68912;SHT31;55953;51.650;-0.522;2023-02-21T15:41:31;11.23;78.20
68912;SHT31;55953;51.650;-0.522;2023-02-21T15:47:04;11.16;78.43
68912;SHT31;55953;51.650;-0.522;2023-02-21T15:49:42;11.17;78.53
68912;SHT31;55953;51.650;-0.522;2023-02-21T16:00:39;11.20;78.32
68912;SHT31;55953;51.650;-0.522;2023-02-21T16:03:27;11.15;78.43
68912;SHT31;55953;51.650;-0.522;2023-02-21T16:09:05;11.19;78.40
68912;SHT31;55953;51.650;-0.522;2023-02-21T16:11:58;11.21;78.28
68912;SHT31;55953;51.650;-0.522;2023-02-21T16:14:46;11.18;78.26
68912;SHT31;55953;51.650;-0.522;2023-02-21T16:20:14;11.10;78.43
68912;SHT31;55953;51.650;-0.522;2023-02-21T16:28:39;10.96;78.84
68912;SHT31;55953;51.650;-0.522;2023-02-21T16:31:09;10.98;78.79
68912;SHT31;55953;51.650;-0.522;2023-02-21T16:33:51;11.00;78.74
68912;SHT31;55953;51.650;-0.522;2023-02-21T16:36:27;11.00;78.53
68912;SHT31;55953;51.650;-0.522;2023-02-21T16:39:01;10.90;78.77
68912;SHT31;55953;51.650;-0.522;2023-02-21T16:41:28;10.85;78.94
68912;SHT31;55953;51.650;-0.522;2023-02-21T16:43:56;10.89;78.82
68912;SHT31;55953;51.650;-0.522;2023-02-21T16:46:25;10.87;78.69
68912;SHT31;55953;51.650;-0.522;2023-02-21T16:48:56;10.86;78.81
68912;SHT31;55953;51.650;-0.522;2023-02-21T16:51:27;10.86;78.92
68912;SHT31;55953;51.650;-0.522;2023-02-21T16:54:00;10.84;78.72
68912;SHT31;55953;51.650;-0.522;2023-02-21T16:56:29;10.74;78.61
68912;SHT31;55953;51.650;-0.522;2023-02-21T16:58:57;10.66;78.79
68912;SHT31;55953;51.650;-0.522;2023-02-21T17:01:26;10.57;78.75
68912;SHT31;55953;51.650;-0.522;2023-02-21T17:03:57;10.46;78.68
68912;SHT31;55953;51.650;-0.522;2023-02-21T17:06:25;10.39;78.90
68912;SHT31;55953;51.650;-0.522;2023-02-21T17:08:55;10.34;79.15
68912;SHT31;55953;51.650;-0.522;2023-02-21T17:11:25;10.23;79.47
68912;SHT31;55953;51.650;-0.522;2023-02-21T17:13:53;10.18;79.67
68912;SHT31;55953;51.650;-0.522;2023-02-21T17:16:21;10.13;79.61
68912;SHT31;55953;51.650;-0.522;2023-02-21T17:18:49;10.07;79.73
68912;SHT31;55953;51.650;-0.522;2023-02-21T17:21:17;10.03;79.77
68912;SHT31;55953;51.650;-0.522;2023-02-21T17:23:45;9.96;79.83
68912;SHT31;55953;51.650;-0.522;2023-02-21T17:26:15;9.86;79.96
68912;SHT31;55953;51.650;-0.522;2023-02-21T17:28:43;9.82;80.08
68912;SHT31;55953;51.650;-0.522;2023-02-21T17:31:13;9.76;80.07
68912;SHT31;55953;51.650;-0.522;2023-02-21T17:33:45;9.71;80.16
68912;SHT31;55953;51.650;-0.522;2023-02-21T17:36:17;9.65;80.24
68912;SHT31;55953;51.650;-0.522;2023-02-21T17:38:52;9.62;80.35
68912;SHT31;55953;51.650;-0.522;2023-02-21T17:41:20;9.63;80.33
68912;SHT31;55953;51.650;-0.522;2023-02-21T17:43:48;9.61;80.35
68912;SHT31;55953;51.650;-0.522;2023-02-21T17:46:17;9.60;80.35
68912;SHT31;55953;51.650;-0.522;2023-02-21T17:48:47;9.55;80.42
68912;SHT31;55953;51.650;-0.522;2023-02-21T17:51:22;9.48;80.52
68912;SHT31;55953;51.650;-0.522;2023-02-21T17:53:53;9.42;80.63
68912;SHT31;55953;51.650;-0.522;2023-02-21T17:56:22;9.38;80.71
68912;SHT31;55953;51.650;-0.522;2023-02-21T17:58:51;9.39;80.64
68912;SHT31;55953;51.650;-0.522;2023-02-21T18:01:19;9.40;80.64
68912;SHT31;55953;51.650;-0.522;2023-02-21T18:03:47;9.38;80.55
68912;SHT31;55953;51.650;-0.522;2023-02-21T18:06:15;9.31;80.56
68912;SHT31;55953;51.650;-0.522;2023-02-21T18:08:44;9.26;80.71
68912;SHT31;55953;51.650;-0.522;2023-02-21T18:11:14;9.22;80.76
68912;SHT31;55953;51.650;-0.522;2023-02-21T18:13:44;9.21;80.77
68912;SHT31;55953;51.650;-0.522;2023-02-21T18:16:12;9.25;80.80
68912;SHT31;55953;51.650;-0.522;2023-02-21T18:18:40;9.31;80.68
68912;SHT31;55953;51.650;-0.522;2023-02-21T18:21:08;9.29;80.60
68912;SHT31;55953;51.650;-0.522;2023-02-21T18:23:36;9.25;80.72
68912;SHT31;55953;51.650;-0.522;2023-02-21T18:26:04;9.19;80.86
68912;SHT31;55953;51.650;-0.522;2023-02-21T18:28:32;9.18;80.87
68912;SHT31;55953;51.650;-0.522;2023-02-21T18:31:00;9.12;80.97
68912;SHT31;55953;51.650;-0.522;2023-02-21T18:33:29;9.08;81.09
68912;SHT31;55953;51.650;-0.522;2023-02-21T18:35:57;9.09;81.08
68912;SHT31;55953;51.650;-0.522;2023-02-21T18:38:26;9.06;81.12
68912;SHT31;55953;51.650;-0.522;2023-02-21T18:40:54;9.02;81.10
68912;SHT31;55953;51.650;-0.522;2023-02-21T18:43:27;9.00;81.17
68912;SHT31;55953;51.650;-0.522;2023-02-21T18:45:56;8.95;81.34
68912;SHT31;55953;51.650;-0.522;2023-02-21T18:48:25;8.95;81.39
68912;SHT31;55953;51.650;-0.522;2023-02-21T18:58:15;8.81;81.59
68912;SHT31;55953;51.650;-0.522;2023-02-21T19:00:43;8.77;81.71
68912;SHT31;55953;51.650;-0.522;2023-02-21T19:03:10;8.72;81.79
68912;SHT31;55953;51.650;-0.522;2023-02-21T19:05:39;8.65;81.93
68912;SHT31;55953;51.650;-0.522;2023-02-21T19:08:07;8.60;82.03
68912;SHT31;55953;51.650;-0.522;2023-02-21T19:10:36;8.56;82.10
68912;SHT31;55953;51.650;-0.522;2023-02-21T19:13:04;8.51;82.18
68912;SHT31;55953;51.650;-0.522;2023-02-21T19:15:32;8.51;82.19
68912;SHT31;55953;51.650;-0.522;2023-02-21T19:18:00;8.50;82.15
68912;SHT31;55953;51.650;-0.522;2023-02-21T19:20:28;8.44;82.11
68912;SHT31;55953;51.650;-0.522;2023-02-21T19:22:56;8.38;82.24
68912;SHT31;55953;51.650;-0.522;2023-02-21T19:25:24;8.34;82.23
68912;SHT31;55953;51.650;-0.522;2023-02-21T19:27:54;8.27;82.35
68912;SHT31;55953;51.650;-0.522;2023-02-21T19:30:28;8.25;82.46
68912;SHT31;55953;51.650;-0.522;2023-02-21T19:33:01;8.22;82.39
68912;SHT31;55953;51.650;-0.522;2023-02-21T19:35:32;8.14;82.50
68912;SHT31;55953;51.650;-0.522;2023-02-21T19:38:05;8.10;82.64
68912;SHT31;55953;51.650;-0.522;2023-02-21T19:40:35;8.10;82.66
68912;SHT31;55953;51.650;-0.522;2023-02-21T19:43:03;8.10;82.60